createdAt,value
2022-10-19T00:02:14.410Z,7.10
2022-10-19T00:04:40.751Z,8.98
2022-10-19T00:07:07.032Z,9.10
2022-10-19T00:09:33.310Z,7.38
2022-10-19T00:11:59.591Z,7.55
2022-10-19T00:14:25.987Z,8.40
2022-10-19T00:16:53.055Z,8.18
2022-10-19T00:19:21.044Z,9.02
2022-10-19T00:21:47.375Z,8.38
2022-10-19T00:24:13.903Z,9.23
2022-10-19T00:26:40.341Z,8.75
2022-10-19T00:29:07.087Z,9.48
2022-10-19T00:31:33.433Z,8.65
2022-10-19T00:34:00.080Z,9.18
2022-10-19T00:36:27.802Z,9.52
2022-10-19T00:38:54.612Z,9.90
2022-10-19T00:41:21.662Z,10.15
2022-10-19T00:43:52.292Z,11.50
2022-10-19T00:46:18.609Z,11.77
2022-10-19T00:48:44.962Z,10.90
2022-10-19T00:51:11.298Z,9.90
2022-10-19T00:53:37.900Z,11.23
2022-10-19T00:56:06.402Z,11.40
2022-10-19T00:58:32.713Z,11.40
2022-10-19T01:01:01.545Z,13.98
2022-10-19T01:03:27.817Z,14.30
2022-10-19T01:05:54.557Z,12.43
2022-10-19T01:08:21.101Z,12.73
2022-10-19T01:11:06.109Z,13.32
2022-10-19T01:13:35.388Z,14.27
2022-10-19T01:16:13.113Z,12.95
2022-10-19T01:19:05.611Z,13.57
2022-10-19T01:21:39.158Z,13.65
2022-10-19T01:24:14.933Z,13.18
2022-10-19T01:26:56.928Z,13.55
2022-10-19T01:29:29.037Z,11.82
2022-10-19T01:31:59.943Z,11.73
2022-10-19T01:34:31.726Z,11.68
2022-10-19T01:37:02.035Z,12.23
2022-10-19T01:42:11.303Z,13.07
2022-10-19T01:44:42.065Z,11.40
2022-10-19T01:47:15.018Z,11.35
2022-10-19T01:49:43.447Z,11.65
2022-10-19T01:52:11.055Z,11.60
2022-10-19T01:54:39.693Z,12.27
2022-10-19T01:57:07.133Z,10.75
2022-10-19T01:59:33.937Z,9.85
2022-10-19T02:02:01.691Z,10.15
2022-10-19T02:04:28.358Z,8.82
2022-10-19T02:06:55.233Z,8.60
2022-10-19T02:09:21.772Z,9.25
2022-10-19T02:11:51.334Z,9.27
2022-10-19T02:14:22.764Z,8.68
2022-10-19T02:16:51.170Z,9.63
2022-10-19T02:19:18.003Z,8.95
2022-10-19T02:21:44.379Z,8.57
2022-10-19T02:24:10.675Z,10.27
2022-10-19T02:26:37.389Z,10.05
2022-10-19T02:29:03.759Z,9.70
2022-10-19T02:31:30.207Z,10.05
2022-10-19T02:33:56.514Z,10.25
2022-10-19T02:36:22.808Z,10.15
2022-10-19T02:38:49.173Z,10.38
2022-10-19T02:41:38.741Z,10.48
2022-10-19T02:44:28.384Z,10.23
2022-10-19T02:46:56.773Z,11.15
2022-10-19T02:49:23.214Z,9.32
2022-10-19T02:51:57.271Z,11.65
2022-10-19T02:54:23.739Z,11.48
2022-10-19T02:56:50.014Z,11.82
2022-10-19T02:59:16.899Z,11.25
2022-10-19T03:01:43.169Z,10.07
2022-10-19T03:04:09.465Z,10.05
2022-10-19T03:06:35.782Z,9.45
2022-10-19T03:09:02.053Z,9.15
2022-10-19T03:11:28.313Z,10.65
2022-10-19T03:13:54.586Z,9.75
2022-10-19T03:16:20.879Z,9.93
2022-10-19T03:18:50.363Z,10.18
2022-10-19T03:21:17.187Z,9.13
2022-10-19T03:23:43.462Z,9.38
2022-10-19T03:26:12.439Z,10.15
2022-10-19T03:28:38.918Z,9.60
2022-10-19T03:31:05.373Z,9.38
2022-10-19T03:33:31.640Z,8.35
2022-10-19T03:36:16.443Z,8.00
2022-10-19T03:38:42.812Z,9.45
2022-10-19T03:41:09.125Z,9.38
2022-10-19T03:43:35.439Z,9.65
2022-10-19T03:46:01.752Z,8.50
2022-10-19T03:48:28.092Z,7.72
2022-10-19T03:51:01.802Z,7.90
2022-10-19T03:53:28.093Z,8.60
2022-10-19T03:56:00.124Z,7.93
2022-10-19T03:58:26.385Z,7.55
2022-10-19T04:00:52.712Z,7.28
2022-10-19T04:03:19.034Z,6.93
2022-10-19T04:05:45.316Z,6.82
2022-10-19T04:08:11.650Z,7.70
2022-10-19T04:10:37.937Z,8.13
2022-10-19T04:13:04.205Z,9.65
2022-10-19T04:15:30.473Z,8.35
2022-10-19T04:17:56.729Z,9.30
2022-10-19T04:20:23.051Z,9.30
2022-10-19T04:22:49.301Z,8.40
2022-10-19T04:25:15.573Z,8.27
2022-10-19T04:27:41.840Z,8.98
2022-10-19T04:30:08.294Z,8.85
2022-10-19T04:32:34.550Z,8.35
2022-10-19T04:35:00.834Z,8.60
2022-10-19T04:37:27.123Z,8.48
2022-10-19T04:39:53.403Z,8.30
2022-10-19T04:42:19.738Z,7.15
2022-10-19T04:44:46.025Z,8.27
2022-10-19T04:47:12.332Z,8.38
2022-10-19T04:49:38.616Z,9.05
2022-10-19T04:52:04.919Z,7.38
2022-10-19T04:54:31.211Z,8.80
2022-10-19T04:56:57.479Z,6.97
2022-10-19T04:59:23.807Z,7.90
2022-10-19T05:01:50.082Z,9.15
2022-10-19T05:04:16.418Z,9.80
2022-10-19T05:06:42.725Z,8.77
2022-10-19T05:09:09.089Z,8.43
2022-10-19T05:11:35.407Z,8.80
2022-10-19T05:14:01.675Z,8.00
2022-10-19T05:16:28.083Z,7.65
2022-10-19T05:18:59.557Z,8.00
2022-10-19T05:21:27.550Z,8.15
2022-10-19T05:23:54.556Z,8.88
2022-10-19T05:26:22.186Z,7.95
2022-10-19T05:28:56.377Z,8.13
2022-10-19T05:31:23.917Z,8.38
2022-10-19T05:33:50.205Z,9.05
2022-10-19T05:36:18.057Z,8.23
2022-10-19T05:38:45.655Z,8.80
2022-10-19T05:41:12.447Z,8.23
2022-10-19T05:43:39.771Z,8.40
2022-10-19T05:46:07.138Z,7.53
2022-10-19T05:48:33.940Z,8.55
2022-10-19T05:51:05.162Z,9.52
2022-10-19T05:53:31.679Z,7.82
2022-10-19T05:55:58.121Z,7.90
2022-10-19T05:58:24.446Z,6.60
2022-10-19T06:00:51.771Z,7.57
2022-10-19T06:03:18.332Z,7.47
2022-10-19T06:05:44.619Z,6.45
2022-10-19T06:08:10.898Z,7.43
2022-10-19T06:10:37.177Z,7.32
2022-10-19T06:13:03.458Z,7.15
2022-10-19T06:15:32.362Z,7.07
2022-10-19T06:17:58.639Z,8.07
2022-10-19T06:20:26.884Z,9.20
2022-10-19T06:22:53.193Z,7.93
2022-10-19T06:25:20.425Z,7.18
2022-10-19T06:27:47.440Z,8.20
2022-10-19T06:30:13.821Z,7.50
2022-10-19T06:32:40.126Z,6.60
2022-10-19T06:35:06.621Z,6.30
2022-10-19T06:37:33.206Z,6.75
2022-10-19T06:40:03.627Z,6.78
2022-10-19T06:42:33.157Z,7.22
2022-10-19T06:44:59.482Z,6.47
2022-10-19T06:47:31.174Z,6.43
2022-10-19T06:49:57.528Z,5.78
2022-10-19T06:52:23.815Z,6.75
2022-10-19T06:54:50.104Z,6.88
2022-10-19T06:57:16.368Z,6.82
2022-10-19T06:59:42.630Z,6.65
2022-10-19T07:02:10.611Z,5.68
2022-10-19T07:04:36.883Z,6.15
2022-10-19T07:07:03.222Z,5.72
2022-10-19T07:09:29.497Z,6.55
2022-10-19T07:11:55.770Z,5.50
2022-10-19T07:14:24.663Z,6.10
2022-10-19T07:16:51.418Z,5.55
2022-10-19T07:19:17.703Z,5.97
2022-10-19T07:21:44.863Z,6.63
2022-10-19T07:24:11.412Z,6.32
2022-10-19T07:26:37.906Z,5.43
2022-10-19T07:29:04.345Z,5.63
2022-10-19T07:31:31.261Z,6.20
2022-10-19T07:34:01.126Z,5.43
2022-10-19T07:36:28.053Z,5.70
2022-10-19T07:38:54.702Z,5.57
2022-10-19T07:41:21.713Z,5.25
2022-10-19T07:43:48.347Z,5.40
2022-10-19T07:46:16.213Z,5.22
2022-10-19T07:48:42.743Z,5.50
2022-10-19T07:51:09.799Z,5.53
2022-10-19T07:53:36.512Z,5.65
2022-10-19T07:56:03.919Z,5.40
2022-10-19T07:58:30.213Z,5.00
2022-10-19T08:01:07.191Z,4.78
2022-10-19T08:06:20.566Z,4.93
2022-10-19T08:08:47.489Z,4.97
2022-10-19T08:11:15.282Z,4.55
2022-10-19T08:13:42.153Z,3.50
2022-10-19T08:16:39.366Z,4.95
2022-10-19T08:19:12.416Z,5.32
2022-10-19T08:21:39.777Z,4.43
2022-10-19T08:24:06.885Z,5.30
2022-10-19T08:26:33.905Z,4.93
2022-10-19T08:29:00.950Z,4.18
2022-10-19T08:31:27.681Z,4.05
2022-10-19T08:33:53.942Z,4.03
2022-10-19T08:36:21.238Z,5.00
2022-10-19T08:38:48.801Z,4.53
2022-10-19T08:41:34.203Z,5.20
2022-10-19T08:44:12.559Z,5.22
2022-10-19T08:46:48.036Z,4.97
2022-10-19T08:49:18.891Z,5.65
2022-10-19T08:51:46.802Z,3.92
2022-10-19T08:54:16.287Z,4.47
2022-10-19T08:56:51.096Z,4.15
2022-10-19T08:59:35.985Z,5.38
2022-10-19T09:02:05.990Z,5.13
2022-10-19T09:04:32.234Z,4.60
2022-10-19T09:07:17.074Z,3.97
2022-10-19T09:12:23.616Z,4.68
2022-10-19T09:14:57.662Z,4.47
2022-10-19T09:17:25.284Z,6.70
2022-10-19T09:19:52.288Z,4.25
2022-10-19T09:22:20.619Z,5.13
2022-10-19T09:25:09.961Z,4.55
2022-10-19T09:27:38.859Z,4.90
2022-10-19T09:30:07.101Z,4.53
2022-10-19T09:32:39.541Z,4.38
2022-10-19T09:35:08.131Z,4.03
2022-10-19T09:37:40.245Z,3.80
2022-10-19T09:40:07.079Z,3.95
2022-10-19T09:42:34.223Z,3.75
2022-10-19T09:45:01.992Z,3.80
2022-10-19T09:47:35.944Z,3.63
2022-10-19T09:50:16.995Z,3.83
2022-10-19T09:52:44.100Z,3.78
2022-10-19T09:55:13.111Z,5.18
2022-10-19T09:57:42.934Z,2.40
2022-10-19T10:00:19.123Z,3.67
2022-10-19T10:02:50.111Z,5.57
2022-10-19T10:05:16.518Z,3.08
2022-10-19T10:07:43.103Z,1.08
2022-10-19T10:10:18.367Z,0.40
2022-10-19T10:12:45.697Z,2.47
2022-10-19T10:15:17.769Z,1.77
2022-10-19T10:17:46.220Z,1.60
2022-10-19T10:20:27.844Z,2.78
2022-10-19T10:22:57.279Z,1.67
2022-10-19T10:25:25.534Z,0.63
2022-10-19T10:27:56.449Z,0.57
2022-10-19T10:30:22.961Z,0.22
2022-10-19T10:32:50.547Z,0.60
2022-10-19T10:35:23.968Z,0.20
2022-10-19T10:37:50.731Z,0.20
2022-10-19T10:40:26.553Z,0.40
2022-10-19T10:42:53.868Z,0.40
2022-10-19T10:45:26.061Z,0.40
2022-10-19T10:47:53.152Z,0.28
2022-10-19T10:50:21.640Z,0.47
2022-10-19T10:53:01.093Z,1.40
2022-10-19T10:55:27.496Z,0.40
2022-10-19T10:58:06.894Z,0.43
2022-10-19T11:00:34.579Z,0.28
2022-10-19T11:03:06.716Z,0.60
2022-10-19T11:05:51.730Z,0.60
2022-10-19T11:08:24.523Z,0.40
2022-10-19T11:11:05.885Z,1.70
2022-10-19T11:13:37.462Z,0.68
2022-10-19T11:16:12.533Z,0.70
2022-10-19T11:18:43.515Z,0.73
2022-10-19T11:21:11.637Z,0.60
2022-10-19T11:23:41.184Z,0.70
2022-10-19T11:26:46.133Z,1.08
2022-10-19T11:29:18.894Z,0.95
2022-10-19T11:31:47.793Z,0.68
2022-10-19T11:34:26.122Z,0.93
2022-10-19T11:37:03.114Z,0.73
2022-10-19T11:39:47.765Z,1.63
2022-10-19T11:42:17.041Z,1.35
2022-10-19T11:44:52.513Z,1.13
2022-10-19T11:47:30.802Z,0.45
2022-10-19T11:50:25.030Z,0.95
2022-10-19T11:53:05.374Z,0.70
2022-10-19T11:55:42.929Z,0.90
2022-10-19T11:58:11.988Z,1.63
2022-10-19T12:00:44.685Z,1.13
2022-10-19T12:03:18.082Z,0.80
2022-10-19T12:05:54.222Z,0.98
2022-10-19T12:08:23.807Z,0.80
2022-10-19T12:10:50.211Z,0.47
2022-10-19T12:13:19.367Z,0.70
2022-10-19T12:15:48.029Z,0.82
2022-10-19T12:18:16.216Z,0.68
2022-10-19T12:20:50.878Z,0.43
2022-10-19T12:23:21.882Z,0.35
2022-10-19T12:25:48.742Z,0.95
2022-10-19T12:28:21.675Z,0.82
2022-10-19T12:30:48.467Z,0.95
2022-10-19T12:33:26.794Z,1.08
2022-10-19T12:35:57.333Z,0.95
2022-10-19T12:38:26.393Z,0.95
2022-10-19T12:41:11.614Z,0.77
2022-10-19T12:43:44.972Z,1.05
2022-10-19T12:46:34.579Z,0.98
2022-10-19T12:49:23.918Z,0.90
2022-10-19T12:51:50.221Z,0.63
2022-10-19T12:54:16.572Z,0.77
2022-10-19T12:56:47.550Z,1.27
2022-10-19T12:59:24.766Z,1.67
2022-10-19T13:01:51.522Z,0.20
2022-10-19T13:04:17.774Z,1.45
2022-10-19T13:06:49.403Z,0.60
2022-10-19T13:09:28.573Z,0.52
2022-10-19T13:12:16.172Z,0.35
2022-10-19T13:14:50.597Z,0.55
2022-10-19T13:17:36.471Z,0.47
2022-10-19T13:20:15.048Z,0.38
2022-10-19T13:22:46.018Z,0.30
2022-10-19T13:25:15.094Z,0.30
2022-10-19T13:27:41.622Z,0.40
2022-10-19T13:30:26.469Z,0.38
2022-10-19T13:32:52.750Z,2.05
2022-10-19T13:35:25.338Z,0.65
2022-10-19T13:38:12.836Z,0.32
2022-10-19T13:40:59.372Z,0.40
2022-10-19T13:43:25.605Z,0.93
2022-10-19T13:46:00.684Z,0.68
2022-10-19T13:48:34.292Z,0.10
2022-10-19T13:51:11.020Z,0.40
2022-10-19T13:53:50.758Z,0.05
2022-10-19T13:56:17.045Z,1.05
2022-10-19T13:59:05.972Z,0.20
2022-10-19T14:01:52.576Z,0.57
2022-10-19T14:04:18.897Z,0.25
2022-10-19T14:07:05.308Z,0.20
2022-10-19T14:09:54.376Z,0.10
2022-10-19T14:12:23.644Z,0.75
2022-10-19T14:14:53.403Z,0.30
2022-10-19T14:17:28.512Z,0.13
2022-10-19T14:19:57.017Z,0.08
2022-10-19T14:22:33.984Z,0.00
2022-10-19T14:25:01.925Z,0.85
2022-10-19T14:27:28.309Z,0.20
2022-10-19T14:29:54.647Z,0.20
2022-10-19T14:32:22.711Z,0.30
2022-10-19T14:34:49.055Z,0.10
2022-10-19T14:37:25.853Z,0.00
2022-10-19T14:40:26.409Z,0.40
2022-10-19T14:42:54.429Z,0.17
2022-10-19T14:45:30.720Z,0.10
2022-10-19T14:48:01.557Z,0.05
2022-10-19T14:50:49.140Z,0.00
2022-10-19T14:53:34.057Z,0.40
2022-10-19T14:56:26.767Z,0.22
2022-10-19T14:59:00.936Z,0.10
2022-10-19T15:01:27.371Z,0.00
2022-10-19T15:03:53.742Z,0.32
2022-10-19T15:06:22.778Z,0.68
2022-10-19T15:08:50.868Z,0.20
2022-10-19T15:11:40.519Z,0.25
2022-10-19T15:16:39.137Z,0.10
2022-10-19T15:19:06.373Z,0.00
2022-10-19T15:21:33.508Z,0.28
2022-10-19T15:24:07.913Z,0.00
2022-10-19T15:26:34.380Z,0.05
2022-10-19T15:29:07.774Z,0.45
2022-10-19T15:31:34.103Z,0.08
2022-10-19T15:34:01.589Z,0.20
2022-10-19T15:36:29.397Z,0.57
2022-10-19T15:39:06.330Z,0.47
2022-10-19T15:41:44.645Z,1.83
2022-10-19T15:44:29.652Z,0.10
2022-10-19T15:47:12.954Z,0.20
2022-10-19T15:49:42.299Z,0.10
2022-10-19T15:52:22.278Z,0.43
2022-10-19T15:54:49.140Z,0.20
2022-10-19T15:57:30.813Z,0.55
2022-10-19T15:59:58.104Z,0.65
2022-10-19T16:02:25.161Z,0.50
2022-10-19T16:04:54.915Z,0.13
2022-10-19T16:07:25.087Z,0.75
2022-10-19T16:12:17.583Z,0.70
2022-10-19T16:14:43.902Z,0.30
2022-10-19T16:17:12.499Z,0.30
2022-10-19T16:19:38.851Z,0.60
2022-10-19T16:22:08.005Z,0.70
2022-10-19T16:24:34.441Z,1.30
2022-10-19T16:27:00.859Z,0.60
2022-10-19T16:29:29.028Z,1.08
2022-10-19T16:31:55.588Z,0.70
2022-10-19T16:34:21.995Z,0.88
2022-10-19T16:36:48.341Z,0.68
2022-10-19T16:39:14.654Z,0.88
2022-10-19T16:41:41.027Z,1.27
2022-10-19T16:44:07.306Z,1.13
2022-10-19T16:46:33.555Z,1.08
2022-10-19T16:48:59.853Z,1.30
2022-10-19T16:51:28.221Z,1.42
2022-10-19T16:53:57.129Z,1.55
2022-10-19T16:56:24.179Z,1.30
2022-10-19T16:58:52.771Z,1.15
2022-10-19T17:01:19.377Z,1.33
2022-10-19T17:03:46.779Z,1.20
2022-10-19T17:06:13.563Z,1.50
2022-10-19T17:09:14.339Z,1.30
2022-10-19T17:11:26.364Z,1.25
2022-10-19T17:13:53.813Z,2.55
2022-10-19T17:16:20.554Z,1.42
2022-10-19T17:18:47.185Z,1.85
2022-10-19T17:21:15.099Z,1.23
2022-10-19T17:23:41.824Z,1.40
2022-10-19T17:26:08.851Z,1.92
2022-10-19T17:28:35.620Z,1.50
2022-10-19T17:31:09.152Z,2.03
2022-10-19T17:33:36.602Z,1.95
2022-10-19T17:36:10.614Z,1.50
2022-10-19T17:38:37.125Z,1.60
2022-10-19T17:41:04.952Z,2.22
2022-10-19T17:43:31.304Z,2.35
2022-10-19T17:45:58.763Z,1.85
2022-10-19T17:48:25.220Z,2.42
2022-10-19T17:50:58.672Z,2.05
2022-10-19T17:53:25.172Z,2.42
2022-10-19T17:55:52.264Z,2.13
2022-10-19T17:58:18.589Z,2.25
2022-10-19T18:00:44.927Z,2.70
2022-10-19T18:03:11.263Z,2.08
2022-10-19T18:05:37.615Z,3.42
2022-10-19T18:08:03.927Z,1.95
2022-10-19T18:10:30.210Z,2.90
2022-10-19T18:12:56.518Z,2.50
2022-10-19T18:15:22.813Z,3.00
2022-10-19T18:17:49.077Z,2.28
2022-10-19T18:20:15.469Z,2.75
2022-10-19T18:25:09.129Z,2.53
2022-10-19T18:27:35.652Z,2.55
2022-10-19T18:30:02.138Z,2.38
2022-10-19T18:32:28.442Z,2.00
2022-10-19T18:34:57.596Z,2.88
2022-10-19T18:37:23.967Z,3.10
2022-10-19T18:39:50.331Z,2.33
2022-10-19T18:42:17.833Z,2.28
2022-10-19T18:44:44.147Z,2.53
2022-10-19T18:47:11.763Z,2.85
2022-10-19T18:49:38.107Z,2.80
2022-10-19T18:52:04.430Z,2.58
2022-10-19T18:54:30.803Z,2.53
2022-10-19T18:56:57.144Z,2.33
2022-10-19T18:59:23.769Z,3.08
2022-10-19T19:01:50.272Z,2.45
2022-10-19T19:04:16.731Z,2.70
2022-10-19T19:06:43.153Z,3.20
2022-10-19T19:09:10.494Z,2.70
2022-10-19T19:11:38.247Z,3.22
2022-10-19T19:14:06.586Z,3.90
2022-10-19T19:16:34.185Z,3.05
2022-10-19T19:19:00.526Z,3.00
2022-10-19T19:21:28.584Z,3.17
2022-10-19T19:23:55.593Z,4.50
2022-10-19T19:26:23.383Z,3.55
2022-10-19T19:28:51.690Z,4.05
2022-10-19T19:31:18.964Z,5.63
2022-10-19T19:33:46.434Z,4.30
2022-10-19T19:36:13.973Z,4.40
2022-10-19T19:38:40.696Z,3.90
2022-10-19T19:41:07.842Z,5.00
2022-10-19T19:43:35.145Z,4.97
2022-10-19T19:46:04.747Z,5.57
2022-10-19T19:48:34.326Z,5.35
2022-10-19T19:51:00.594Z,7.78
2022-10-19T19:53:26.863Z,5.00
2022-10-19T19:55:53.825Z,6.18
2022-10-19T19:58:20.085Z,5.85
2022-10-19T20:00:46.430Z,5.75
2022-10-19T20:03:13.252Z,6.35
2022-10-19T20:05:40.606Z,6.55
2022-10-19T20:08:07.418Z,6.30
2022-10-19T20:10:37.064Z,6.47
2022-10-19T20:15:30.618Z,6.22
2022-10-19T20:17:56.906Z,6.50
2022-10-19T20:20:23.189Z,7.13
2022-10-19T20:22:49.492Z,5.95
2022-10-19T20:25:15.837Z,7.30
2022-10-19T20:27:42.367Z,7.40
2022-10-19T20:30:09.066Z,6.60
2022-10-19T20:32:35.589Z,6.65
2022-10-19T20:35:03.587Z,6.53
2022-10-19T20:37:31.252Z,6.30
2022-10-19T20:39:57.613Z,7.40
2022-10-19T20:42:23.960Z,7.50
2022-10-19T20:44:50.265Z,8.68
2022-10-19T20:47:17.157Z,7.55
2022-10-19T20:49:43.433Z,7.40
2022-10-19T20:52:09.691Z,9.05
2022-10-19T20:54:35.999Z,10.05
2022-10-19T20:57:02.289Z,9.05
2022-10-19T20:59:28.684Z,7.82
2022-10-19T21:01:56.409Z,8.50
2022-10-19T21:04:23.182Z,9.88
2022-10-19T21:06:50.467Z,9.10
2022-10-19T21:09:18.178Z,8.00
2022-10-19T21:11:44.788Z,9.02
2022-10-19T21:14:12.690Z,8.23
2022-10-19T21:16:39.416Z,9.65
2022-10-19T21:19:06.906Z,8.90
2022-10-19T21:21:34.319Z,9.75
2022-10-19T21:24:04.302Z,9.02
2022-10-19T21:26:31.449Z,9.23
2022-10-19T21:28:58.204Z,9.63
2022-10-19T21:31:25.405Z,9.88
2022-10-19T21:33:52.214Z,8.98
2022-10-19T21:36:19.484Z,9.23
2022-10-19T21:38:45.757Z,9.18
2022-10-19T21:41:13.106Z,10.23
2022-10-19T21:43:39.667Z,8.90
2022-10-19T21:46:07.852Z,8.20
2022-10-19T21:48:34.431Z,10.13
2022-10-19T21:51:09.863Z,10.68
2022-10-19T21:53:36.134Z,8.55
2022-10-19T21:56:02.415Z,8.13
2022-10-19T21:58:28.702Z,8.23
2022-10-19T22:00:54.971Z,9.98
2022-10-19T22:03:21.289Z,9.60
2022-10-19T22:05:51.599Z,8.63
2022-10-19T22:08:18.054Z,10.23
2022-10-19T22:10:44.401Z,10.48
2022-10-19T22:13:10.694Z,12.10
2022-10-19T22:15:37.664Z,10.10
2022-10-19T22:18:03.982Z,11.00
2022-10-19T22:20:30.271Z,12.60
2022-10-19T22:22:56.551Z,12.27
2022-10-19T22:25:22.848Z,13.75
2022-10-19T22:27:49.142Z,14.70
2022-10-19T22:30:15.472Z,13.40
2022-10-19T22:32:41.739Z,12.63
2022-10-19T22:35:08.138Z,13.00
2022-10-19T22:37:34.769Z,12.00
2022-10-19T22:40:01.053Z,12.70
2022-10-19T22:42:27.305Z,12.18
2022-10-19T22:44:53.579Z,13.27
2022-10-19T22:47:19.838Z,13.55
2022-10-19T22:49:46.214Z,12.98
2022-10-19T22:52:12.491Z,13.18
2022-10-19T22:54:38.770Z,14.20
2022-10-19T22:57:05.043Z,13.45
2022-10-19T22:59:31.310Z,14.13
2022-10-19T23:01:57.624Z,14.27
2022-10-19T23:04:23.949Z,15.10
2022-10-19T23:06:50.228Z,14.90
2022-10-19T23:09:16.561Z,15.80
2022-10-19T23:11:42.845Z,14.60
2022-10-19T23:14:09.119Z,15.40
2022-10-19T23:16:35.394Z,13.32
2022-10-19T23:19:01.683Z,15.50
2022-10-19T23:21:27.967Z,13.85
2022-10-19T23:23:54.240Z,13.43
2022-10-19T23:26:21.133Z,13.82
2022-10-19T23:28:48.781Z,13.93
2022-10-19T23:31:19.986Z,15.10
2022-10-19T23:33:47.004Z,16.00
2022-10-19T23:36:17.742Z,15.40
2022-10-19T23:38:44.649Z,15.90
2022-10-19T23:41:11.307Z,16.60
2022-10-19T23:43:37.611Z,19.75
2022-10-19T23:46:04.029Z,19.63
2022-10-19T23:48:30.321Z,16.65
2022-10-19T23:51:00.570Z,19.17
2022-10-19T23:53:27.412Z,17.58
2022-10-19T23:56:00.529Z,20.27
2022-10-19T23:58:26.893Z,18.40
